createdAt,value
2023-02-12T00:00:04.046Z,956.38
2023-02-12T00:01:02.850Z,956.41
2023-02-12T00:02:02.925Z,956.41
2023-02-12T00:03:02.854Z,956.41
2023-02-12T00:04:02.853Z,956.39
2023-02-12T00:05:02.966Z,956.43
2023-02-12T00:06:02.804Z,956.38
2023-02-12T00:07:02.801Z,956.41
2023-02-12T00:08:02.793Z,956.42
2023-02-12T00:09:02.977Z,956.45
2023-02-12T00:10:02.754Z,956.44
2023-02-12T00:11:02.753Z,956.45
2023-02-12T00:12:02.740Z,956.43
2023-02-12T00:13:02.752Z,956.40
2023-02-12T00:14:02.721Z,956.40
2023-02-12T00:15:02.770Z,956.45
2023-02-12T00:16:02.792Z,956.49
2023-02-12T00:17:02.693Z,956.50
2023-02-12T00:18:02.666Z,956.51
2023-02-12T00:19:02.695Z,956.53
2023-02-12T00:20:02.669Z,956.54
2023-02-12T00:21:02.650Z,956.45
2023-02-12T00:22:02.642Z,956.40
2023-02-12T00:23:02.688Z,956.38
2023-02-12T00:24:02.671Z,956.39
2023-02-12T00:25:02.699Z,956.40
2023-02-12T00:26:10.147Z,956.34
2023-02-12T00:27:02.578Z,956.34
2023-02-12T00:28:02.641Z,956.37
2023-02-12T00:29:02.593Z,956.34
2023-02-12T00:30:02.605Z,956.37
2023-02-12T00:31:02.698Z,956.33
2023-02-12T00:32:02.649Z,956.34
2023-02-12T00:33:02.523Z,956.33
2023-02-12T00:34:02.536Z,956.29
2023-02-12T00:35:02.519Z,956.34
2023-02-12T00:36:02.541Z,956.33
2023-02-12T00:37:02.482Z,956.36
2023-02-12T00:38:02.469Z,956.36
2023-02-12T00:39:02.509Z,956.39
2023-02-12T00:40:02.925Z,956.41
2023-02-12T00:41:02.464Z,956.40
2023-02-12T00:42:02.476Z,956.44
2023-02-12T00:43:02.471Z,956.46
2023-02-12T00:44:02.411Z,956.43
2023-02-12T00:45:02.422Z,956.55
2023-02-12T00:46:02.452Z,956.58
2023-02-12T00:47:02.436Z,956.61
2023-02-12T00:48:02.366Z,956.65
2023-02-12T00:49:02.374Z,956.68
2023-02-12T00:50:02.342Z,956.67
2023-02-12T00:51:02.342Z,956.66
2023-02-12T00:52:02.349Z,956.67
2023-02-12T00:53:02.325Z,956.75
2023-02-12T00:54:02.306Z,956.66
2023-02-12T00:55:02.301Z,956.65
2023-02-12T00:56:02.341Z,956.65
2023-02-12T00:57:02.327Z,956.67
2023-02-12T00:58:02.273Z,956.68
2023-02-12T00:59:02.287Z,956.70
2023-02-12T01:00:02.273Z,956.67
2023-02-12T01:01:02.267Z,956.68
2023-02-12T01:02:02.280Z,956.70
2023-02-12T01:03:02.240Z,956.66
2023-02-12T01:04:02.229Z,956.68
2023-02-12T01:05:02.341Z,956.70
2023-02-12T01:06:02.192Z,956.71
2023-02-12T01:07:02.185Z,956.71
2023-02-12T01:08:02.162Z,956.69
2023-02-12T01:09:02.164Z,956.68
2023-02-12T01:10:02.143Z,956.69
2023-02-12T01:11:02.181Z,956.68
2023-02-12T01:12:02.123Z,956.70
2023-02-12T01:13:02.133Z,956.71
2023-02-12T01:14:02.114Z,956.71
2023-02-12T01:15:02.097Z,956.69
2023-02-12T01:16:02.226Z,956.69
2023-02-12T01:17:02.145Z,956.70
2023-02-12T01:18:02.066Z,956.63
2023-02-12T01:19:02.089Z,956.63
2023-02-12T01:20:02.074Z,956.58
2023-02-12T01:21:02.057Z,956.58
2023-02-12T01:22:02.050Z,956.63
2023-02-12T01:23:02.043Z,956.57
2023-02-12T01:24:02.006Z,956.55
2023-02-12T01:25:02.084Z,956.56
2023-02-12T01:26:02.020Z,956.54
2023-02-12T01:27:01.972Z,956.55
2023-02-12T01:28:02.052Z,956.53
2023-02-12T01:29:02.013Z,956.53
2023-02-12T01:30:01.941Z,956.51
2023-02-12T01:31:02.067Z,956.53
2023-02-12T01:32:02.212Z,956.53
2023-02-12T01:33:01.918Z,956.56
2023-02-12T01:34:01.958Z,956.57
2023-02-12T01:35:02.000Z,956.51
2023-02-12T01:36:01.903Z,956.53
2023-02-12T01:37:01.883Z,956.53
2023-02-12T01:38:01.868Z,956.57
2023-02-12T01:39:01.863Z,956.57
2023-02-12T01:40:01.841Z,956.53
2023-02-12T01:41:01.866Z,956.58
2023-02-12T01:42:01.825Z,956.57
2023-02-12T01:43:01.830Z,956.56
2023-02-12T01:44:01.801Z,956.59
2023-02-12T01:45:01.826Z,956.62
2023-02-12T01:46:01.791Z,956.63
2023-02-12T01:47:01.880Z,956.67
2023-02-12T01:48:01.765Z,956.65
2023-02-12T01:49:01.775Z,956.67
2023-02-12T01:50:01.794Z,956.64
2023-02-12T01:51:01.745Z,956.59
2023-02-12T01:52:01.763Z,956.56
2023-02-12T01:53:01.731Z,956.56
2023-02-12T01:54:01.702Z,956.61
2023-02-12T01:55:01.737Z,956.61
2023-02-12T01:56:01.686Z,956.63
2023-02-12T01:57:01.679Z,956.63
2023-02-12T01:58:01.670Z,956.62
2023-02-12T01:59:01.670Z,956.61
2023-02-12T02:00:01.695Z,956.62
2023-02-12T02:01:01.659Z,956.65
2023-02-12T02:02:01.714Z,956.59
2023-02-12T02:03:01.733Z,956.63
2023-02-12T02:04:01.600Z,956.59
2023-02-12T02:05:01.642Z,956.59
2023-02-12T02:06:01.573Z,956.56
2023-02-12T02:07:01.577Z,956.54
2023-02-12T02:08:01.554Z,956.54
2023-02-12T02:09:01.566Z,956.48
2023-02-12T02:10:01.568Z,956.53
2023-02-12T02:11:01.543Z,956.47
2023-02-12T02:12:01.548Z,956.36
2023-02-12T02:13:01.508Z,956.36
2023-02-12T02:14:01.570Z,956.34
2023-02-12T02:15:01.492Z,956.34
2023-02-12T02:16:01.597Z,956.37
2023-02-12T02:17:01.528Z,956.41
2023-02-12T02:18:01.455Z,956.45
2023-02-12T02:19:01.440Z,956.49
2023-02-12T02:20:01.625Z,956.45
2023-02-12T02:21:01.461Z,956.49
2023-02-12T02:22:01.414Z,956.51
2023-02-12T02:23:01.448Z,956.50
2023-02-12T02:24:01.392Z,956.47
2023-02-12T02:25:01.916Z,956.50
2023-02-12T02:26:01.396Z,956.53
2023-02-12T02:27:01.364Z,956.45
2023-02-12T02:28:01.409Z,956.41
2023-02-12T02:29:01.920Z,956.41
2023-02-12T02:30:01.332Z,956.46
2023-02-12T02:31:01.532Z,956.45
2023-02-12T02:32:01.374Z,956.42
2023-02-12T02:33:01.379Z,956.43
2023-02-12T02:34:01.304Z,956.38
2023-02-12T02:35:01.295Z,956.34
2023-02-12T02:36:01.294Z,956.38
2023-02-12T02:37:01.492Z,956.36
2023-02-12T02:38:01.398Z,956.40
2023-02-12T02:39:01.282Z,956.46
2023-02-12T02:40:01.237Z,956.45
2023-02-12T02:41:01.411Z,956.48
2023-02-12T02:42:01.284Z,956.50
2023-02-12T02:43:01.291Z,956.43
2023-02-12T02:44:01.261Z,956.43
2023-02-12T02:45:01.189Z,956.45
2023-02-12T02:46:01.223Z,956.40
2023-02-12T02:47:01.216Z,956.37
2023-02-12T02:48:01.293Z,956.36
2023-02-12T02:49:01.170Z,956.35
2023-02-12T02:50:01.134Z,956.36
2023-02-12T02:51:01.160Z,956.36
2023-02-12T02:52:01.152Z,956.32
2023-02-12T02:53:01.147Z,956.37
2023-02-12T02:54:01.091Z,956.36
2023-02-12T02:55:01.092Z,956.32
2023-02-12T02:56:01.157Z,956.31
2023-02-12T02:57:01.082Z,956.31
2023-02-12T02:58:01.132Z,956.31
2023-02-12T02:59:01.049Z,956.30
2023-02-12T03:00:01.041Z,956.34
2023-02-12T03:01:01.211Z,956.32
2023-02-12T03:02:01.036Z,956.26
2023-02-12T03:03:01.116Z,956.24
2023-02-12T03:04:00.996Z,956.20
2023-02-12T03:05:01.012Z,956.16
2023-02-12T03:06:01.958Z,956.15
2023-02-12T03:07:00.991Z,956.11
2023-02-12T03:08:01.944Z,956.15
2023-02-12T03:09:00.974Z,956.17
2023-02-12T03:10:00.933Z,956.18
2023-02-12T03:11:01.049Z,956.19
2023-02-12T03:12:00.940Z,956.20
2023-02-12T03:13:00.945Z,956.26
2023-02-12T03:14:00.892Z,956.24
2023-02-12T03:15:00.870Z,956.27
2023-02-12T03:16:00.929Z,956.29
2023-02-12T03:17:00.904Z,956.26
2023-02-12T03:18:00.859Z,956.33
2023-02-12T03:19:00.833Z,956.33
2023-02-12T03:20:00.829Z,956.38
2023-02-12T03:21:00.847Z,956.32
2023-02-12T03:22:00.871Z,956.37
2023-02-12T03:23:00.857Z,956.44
2023-02-12T03:24:00.853Z,956.44
2023-02-12T03:25:00.781Z,956.44
2023-02-12T03:26:00.774Z,956.44
2023-02-12T03:27:00.768Z,956.46
2023-02-12T03:28:00.851Z,956.49
2023-02-12T03:29:00.844Z,956.52
2023-02-12T03:30:00.801Z,956.56
2023-02-12T03:31:00.830Z,956.60
2023-02-12T03:32:00.721Z,956.61
2023-02-12T03:33:00.744Z,956.67
2023-02-12T03:34:00.763Z,956.65
2023-02-12T03:35:00.774Z,956.64
2023-02-12T03:36:00.731Z,956.68
2023-02-12T03:37:00.706Z,956.71
2023-02-12T03:38:00.698Z,956.66
2023-02-12T03:39:00.695Z,956.66
2023-02-12T03:40:00.713Z,956.69
2023-02-12T03:41:00.624Z,956.72
2023-02-12T03:42:00.667Z,956.77
2023-02-12T03:43:00.599Z,956.75
2023-02-12T03:44:00.692Z,956.75
2023-02-12T03:45:00.706Z,956.78
2023-02-12T03:46:00.856Z,956.73
2023-02-12T03:47:00.676Z,956.73
2023-02-12T03:48:00.569Z,956.71
2023-02-12T03:49:00.602Z,956.67
2023-02-12T03:50:00.605Z,956.68
2023-02-12T03:51:00.524Z,956.64
2023-02-12T03:52:00.585Z,956.63
2023-02-12T03:53:00.586Z,956.64
2023-02-12T03:54:00.505Z,956.61
2023-02-12T03:55:00.483Z,956.61
2023-02-12T03:56:00.524Z,956.63
2023-02-12T03:57:00.484Z,956.61
2023-02-12T03:58:00.595Z,956.59
2023-02-12T03:59:00.477Z,956.62
2023-02-12T04:00:00.488Z,956.67
2023-02-12T04:01:00.504Z,956.62
2023-02-12T04:02:00.588Z,956.63
2023-02-12T04:03:00.488Z,956.63
2023-02-12T04:04:00.499Z,956.55
2023-02-12T04:05:00.458Z,956.62
2023-02-12T04:06:00.371Z,956.62
2023-02-12T04:07:00.364Z,956.64
2023-02-12T04:08:00.358Z,956.68
2023-02-12T04:09:00.387Z,956.73
2023-02-12T04:10:00.481Z,956.71
2023-02-12T04:11:00.364Z,956.78
2023-02-12T04:12:00.343Z,956.74
2023-02-12T04:13:00.293Z,956.68
2023-02-12T04:14:00.353Z,956.74
2023-02-12T04:15:00.432Z,956.72
2023-02-12T04:16:00.284Z,956.73
2023-02-12T04:17:04.965Z,956.75
2023-02-12T04:18:00.244Z,956.73
2023-02-12T04:19:00.231Z,956.80
2023-02-12T04:20:00.218Z,956.74
2023-02-12T04:21:00.240Z,956.70
2023-02-12T04:22:00.204Z,956.68
2023-02-12T04:23:00.281Z,956.68
2023-02-12T04:24:00.240Z,956.71
2023-02-12T04:25:00.210Z,956.71
2023-02-12T04:26:00.230Z,956.66
2023-02-12T04:27:00.146Z,956.70
2023-02-12T04:28:00.217Z,956.67
2023-02-12T04:29:00.216Z,956.68
2023-02-12T04:30:00.155Z,956.71
2023-02-12T04:31:00.401Z,956.69
2023-02-12T04:32:00.264Z,956.77
2023-02-12T04:33:00.144Z,956.78
2023-02-12T04:34:00.096Z,956.75
2023-02-12T04:35:00.112Z,956.78
2023-02-12T04:36:00.137Z,956.78
2023-02-12T04:37:00.108Z,956.81
2023-02-12T04:38:00.055Z,956.80
2023-02-12T04:39:00.130Z,956.83
2023-02-12T04:40:00.047Z,956.92
2023-02-12T04:41:00.037Z,956.90
2023-02-12T04:42:00.066Z,956.88
2023-02-12T04:43:00.045Z,956.91
2023-02-12T04:44:00.942Z,956.95
2023-02-12T04:44:59.982Z,957.01
2023-02-12T04:46:00.079Z,956.95
2023-02-12T04:47:04.947Z,956.97
2023-02-12T04:47:59.952Z,956.98
2023-02-12T04:48:59.974Z,956.98
2023-02-12T04:49:59.997Z,956.98
2023-02-12T04:50:59.987Z,957.04
2023-02-12T04:51:59.904Z,957.06
2023-02-12T04:52:59.996Z,957.08
2023-02-12T04:53:59.926Z,957.11
2023-02-12T04:54:59.875Z,957.09
2023-02-12T04:55:59.858Z,957.04
2023-02-12T04:56:59.974Z,957.02
2023-02-12T04:57:59.894Z,957.02
2023-02-12T04:58:59.832Z,957.05
2023-02-12T04:59:59.845Z,957.00
2023-02-12T05:00:59.859Z,957.00
2023-02-12T05:01:59.861Z,957.03
2023-02-12T05:02:59.832Z,957.06
2023-02-12T05:03:59.839Z,957.06
2023-02-12T05:04:59.838Z,957.03
2023-02-12T05:05:59.816Z,957.03
2023-02-12T05:06:59.767Z,957.01
2023-02-12T05:07:59.760Z,957.01
2023-02-12T05:08:59.792Z,957.01
2023-02-12T05:09:59.730Z,957.04
2023-02-12T05:10:59.734Z,957.00
2023-02-12T05:11:59.710Z,957.04
2023-02-12T05:12:59.861Z,957.01
2023-02-12T05:13:59.715Z,957.00
2023-02-12T05:14:59.671Z,956.99
2023-02-12T05:15:59.797Z,957.01
2023-02-12T05:16:59.662Z,956.93
2023-02-12T05:17:59.644Z,956.95
2023-02-12T05:18:59.707Z,956.93
2023-02-12T05:19:59.634Z,956.98
2023-02-12T05:20:59.645Z,956.96
2023-02-12T05:21:59.715Z,956.93
2023-02-12T05:22:59.651Z,956.93
2023-02-12T05:23:59.619Z,956.93
2023-02-12T05:24:59.606Z,956.95
2023-02-12T05:25:59.580Z,956.96
2023-02-12T05:27:07.341Z,956.93
2023-02-12T05:27:59.560Z,956.92
2023-02-12T05:28:59.554Z,956.91
2023-02-12T05:29:59.518Z,956.86
2023-02-12T05:30:59.652Z,956.84
2023-02-12T05:31:59.672Z,956.81
2023-02-12T05:32:59.544Z,956.80
2023-02-12T05:33:59.480Z,956.78
2023-02-12T05:34:59.488Z,956.77
2023-02-12T05:35:59.457Z,956.76
2023-02-12T05:36:59.532Z,956.81
2023-02-12T05:37:59.477Z,956.75
2023-02-12T05:38:59.470Z,956.80
2023-02-12T05:39:59.492Z,956.78
2023-02-12T05:40:59.413Z,956.82
2023-02-12T05:41:59.430Z,956.83
2023-02-12T05:42:59.401Z,956.82
2023-02-12T05:43:59.377Z,956.85
2023-02-12T05:44:59.412Z,956.88
2023-02-12T05:45:59.427Z,956.91
2023-02-12T05:46:59.403Z,956.90
2023-02-12T05:47:59.338Z,956.85
2023-02-12T05:48:59.357Z,956.86
2023-02-12T05:49:59.365Z,956.84
2023-02-12T05:50:59.344Z,956.79
2023-02-12T05:51:59.315Z,956.83
2023-02-12T05:52:59.357Z,956.83
2023-02-12T05:53:59.285Z,956.84
2023-02-12T05:54:59.277Z,956.83
2023-02-12T05:55:59.322Z,956.84
2023-02-12T05:56:59.270Z,956.85
2023-02-12T05:57:59.252Z,956.84
2023-02-12T05:58:59.252Z,956.82
2023-02-12T05:59:59.261Z,956.83
2023-02-12T06:00:59.268Z,956.83
2023-02-12T06:01:59.199Z,956.82
2023-02-12T06:02:59.312Z,956.81
2023-02-12T06:03:59.322Z,956.83
2023-02-12T06:04:59.157Z,956.83
2023-02-12T06:05:59.171Z,956.86
2023-02-12T06:06:59.171Z,956.82
2023-02-12T06:07:59.184Z,956.86
2023-02-12T06:08:59.132Z,956.85
2023-02-12T06:09:59.192Z,956.89
2023-02-12T06:10:59.147Z,956.91
2023-02-12T06:11:59.110Z,956.88
2023-02-12T06:12:59.064Z,956.90
2023-02-12T06:13:59.101Z,956.85
2023-02-12T06:14:59.067Z,956.91
2023-02-12T06:15:59.628Z,956.91
2023-02-12T06:17:04.045Z,956.93
2023-02-12T06:17:59.075Z,956.94
2023-02-12T06:18:59.087Z,956.93
2023-02-12T06:19:59.103Z,956.95
2023-02-12T06:20:58.992Z,956.97
2023-02-12T06:21:59.017Z,957.02
2023-02-12T06:22:58.975Z,956.99
2023-02-12T06:23:58.995Z,957.02
2023-02-12T06:24:59.069Z,957.08
2023-02-12T06:25:58.967Z,957.12
2023-02-12T06:26:58.928Z,957.04
2023-02-12T06:27:58.980Z,957.07
2023-02-12T06:28:58.928Z,957.08
2023-02-12T06:29:59.002Z,957.06
2023-02-12T06:30:58.968Z,957.05
2023-02-12T06:31:59.239Z,957.10
2023-02-12T06:32:58.935Z,957.06
2023-02-12T06:33:58.914Z,957.07
2023-02-12T06:34:58.858Z,957.09
2023-02-12T06:35:58.874Z,957.05
2023-02-12T06:36:58.882Z,957.09
2023-02-12T06:37:58.883Z,957.11
2023-02-12T06:38:58.847Z,957.12
2023-02-12T06:39:58.868Z,957.15
2023-02-12T06:40:58.803Z,957.18
2023-02-12T06:41:58.837Z,957.19
2023-02-12T06:42:58.870Z,957.22
2023-02-12T06:43:58.830Z,957.25
2023-02-12T06:44:58.804Z,957.21
2023-02-12T06:45:58.814Z,957.19
2023-02-12T06:47:03.485Z,957.17
2023-02-12T06:47:58.722Z,957.22
2023-02-12T06:48:58.924Z,957.20
2023-02-12T06:49:58.898Z,957.18
2023-02-12T06:50:58.730Z,957.19
2023-02-12T06:51:58.813Z,957.19
2023-02-12T06:52:58.688Z,957.22
2023-02-12T06:53:58.758Z,957.21
2023-02-12T06:54:58.791Z,957.14
2023-02-12T06:55:58.694Z,957.16
2023-02-12T06:56:58.801Z,957.16
2023-02-12T06:57:58.652Z,957.18
2023-02-12T06:58:58.629Z,957.15
2023-02-12T06:59:58.605Z,957.24
2023-02-12T07:00:58.837Z,957.25
2023-02-12T07:01:58.578Z,957.23
2023-02-12T07:02:58.639Z,957.28
2023-02-12T07:03:58.741Z,957.28
2023-02-12T07:04:58.604Z,957.26
2023-02-12T07:05:58.715Z,957.26
2023-02-12T07:06:58.540Z,957.27
2023-02-12T07:07:58.586Z,957.28
2023-02-12T07:08:58.538Z,957.28
2023-02-12T07:09:58.528Z,957.29
2023-02-12T07:10:58.517Z,957.26
2023-02-12T07:11:58.524Z,957.27
2023-02-12T07:12:58.471Z,957.31
2023-02-12T07:13:58.457Z,957.32
2023-02-12T07:14:58.485Z,957.34
2023-02-12T07:15:58.883Z,957.36
2023-02-12T07:16:58.487Z,957.31
2023-02-12T07:17:58.437Z,957.36
2023-02-12T07:18:58.445Z,957.35
2023-02-12T07:19:58.452Z,957.28
2023-02-12T07:20:58.424Z,957.28
2023-02-12T07:21:58.396Z,957.31
2023-02-12T07:22:58.537Z,957.30
2023-02-12T07:23:58.448Z,957.31
2023-02-12T07:24:58.399Z,957.36
2023-02-12T07:25:58.445Z,957.36
2023-02-12T07:26:58.350Z,957.31
2023-02-12T07:27:58.363Z,957.34
2023-02-12T07:28:58.342Z,957.39
2023-02-12T07:29:58.341Z,957.34
2023-02-12T07:30:58.350Z,957.35
2023-02-12T07:31:58.337Z,957.34
2023-02-12T07:32:58.270Z,957.36
2023-02-12T07:33:58.294Z,957.31
2023-02-12T07:34:58.346Z,957.33
2023-02-12T07:35:58.393Z,957.30
2023-02-12T07:36:58.247Z,957.37
2023-02-12T07:37:58.212Z,957.32
2023-02-12T07:38:58.215Z,957.30
2023-02-12T07:39:58.183Z,957.35
2023-02-12T07:40:58.195Z,957.28
2023-02-12T07:41:58.260Z,957.32
2023-02-12T07:42:58.154Z,957.22
2023-02-12T07:43:58.181Z,957.25
2023-02-12T07:44:58.163Z,957.25
2023-02-12T07:45:58.483Z,957.21
2023-02-12T07:46:58.119Z,957.21
2023-02-12T07:47:58.136Z,957.23
2023-02-12T07:48:58.158Z,957.22
2023-02-12T07:49:58.144Z,957.19
2023-02-12T07:50:58.123Z,957.23
2023-02-12T07:51:58.104Z,957.22
2023-02-12T07:52:58.106Z,957.20
2023-02-12T07:53:58.092Z,957.17
2023-02-12T07:54:58.036Z,957.17
2023-02-12T07:55:58.325Z,957.15
2023-02-12T07:56:58.151Z,957.12
2023-02-12T07:57:58.031Z,957.14
2023-02-12T07:58:58.016Z,957.11
2023-02-12T07:59:58.004Z,957.10
2023-02-12T08:00:57.989Z,957.08
2023-02-12T08:01:58.011Z,957.05
2023-02-12T08:02:57.955Z,957.03
2023-02-12T08:03:57.991Z,957.05
2023-02-12T08:04:57.963Z,957.06
2023-02-12T08:05:58.277Z,957.05
2023-02-12T08:06:57.945Z,957.05
2023-02-12T08:07:57.914Z,957.00
2023-02-12T08:08:57.927Z,957.00
2023-02-12T08:09:57.986Z,957.03
2023-02-12T08:10:57.882Z,956.96
2023-02-12T08:11:57.868Z,956.93
2023-02-12T08:12:57.903Z,956.88
2023-02-12T08:13:57.828Z,956.91
2023-02-12T08:14:57.868Z,956.90
2023-02-12T08:15:58.065Z,956.88
2023-02-12T08:17:02.491Z,956.84
2023-02-12T08:17:57.798Z,956.81
2023-02-12T08:19:07.171Z,956.85
2023-02-12T08:19:58.817Z,956.90
2023-02-12T08:20:57.821Z,956.83
2023-02-12T08:21:57.759Z,956.80
2023-02-12T08:22:57.768Z,956.77
2023-02-12T08:23:57.747Z,956.80
2023-02-12T08:24:57.756Z,956.77
2023-02-12T08:25:57.941Z,956.69
2023-02-12T08:26:57.790Z,956.70
2023-02-12T08:27:58.179Z,956.66
2023-02-12T08:28:57.706Z,956.72
2023-02-12T08:29:57.676Z,956.68
2023-02-12T08:30:57.705Z,956.68
2023-02-12T08:31:57.826Z,956.70
2023-02-12T08:32:57.680Z,956.70
2023-02-12T08:33:57.660Z,956.60
2023-02-12T08:34:57.625Z,956.58
2023-02-12T08:35:59.889Z,956.61
2023-02-12T08:36:57.659Z,956.57
2023-02-12T08:37:57.621Z,956.53
2023-02-12T08:38:57.581Z,956.54
2023-02-12T08:39:57.578Z,956.48
2023-02-12T08:40:57.638Z,956.47
2023-02-12T08:41:57.554Z,956.45
2023-02-12T08:42:57.543Z,956.43
2023-02-12T08:43:57.556Z,956.44
2023-02-12T08:44:57.525Z,956.44
2023-02-12T08:45:57.948Z,956.39
2023-02-12T08:46:57.496Z,956.36
2023-02-12T08:47:57.511Z,956.37
2023-02-12T08:48:57.529Z,956.40
2023-02-12T08:49:57.509Z,956.33
2023-02-12T08:50:57.548Z,956.27
2023-02-12T08:51:57.531Z,956.17
2023-02-12T08:52:57.456Z,956.22
2023-02-12T08:53:57.393Z,956.23
2023-02-12T08:54:57.413Z,956.26
2023-02-12T08:55:57.749Z,956.27
2023-02-12T08:56:57.398Z,956.26
2023-02-12T08:57:57.388Z,956.23
2023-02-12T08:58:57.492Z,956.24
2023-02-12T08:59:57.436Z,956.24
2023-02-12T09:00:57.458Z,956.24
2023-02-12T09:01:57.376Z,956.19
2023-02-12T09:02:57.307Z,956.20
2023-02-12T09:03:57.284Z,956.14
2023-02-12T09:04:57.346Z,956.13
2023-02-12T09:05:57.711Z,956.10
2023-02-12T09:06:57.262Z,956.11
2023-02-12T09:07:57.239Z,956.11
2023-02-12T09:08:57.271Z,956.05
2023-02-12T09:09:57.211Z,956.06
2023-02-12T09:10:57.212Z,956.04
2023-02-12T09:11:57.206Z,955.97
2023-02-12T09:12:57.249Z,955.99
2023-02-12T09:13:57.196Z,955.97
2023-02-12T09:14:57.177Z,955.99
2023-02-12T09:15:58.024Z,955.92
2023-02-12T09:16:57.289Z,955.92
2023-02-12T09:17:57.128Z,955.91
2023-02-12T09:18:57.118Z,955.92
2023-02-12T09:19:57.174Z,955.93
2023-02-12T09:20:57.133Z,955.92
2023-02-12T09:21:57.304Z,955.94
2023-02-12T09:22:57.086Z,955.93
2023-02-12T09:23:57.095Z,955.87
2023-02-12T09:24:57.064Z,955.87
2023-02-12T09:25:57.548Z,955.87
2023-02-12T09:26:57.052Z,955.85
2023-02-12T09:27:57.057Z,955.76
2023-02-12T09:28:57.051Z,955.78
2023-02-12T09:29:57.006Z,955.77
2023-02-12T09:30:57.138Z,955.79
2023-02-12T09:31:57.310Z,955.80
2023-02-12T09:32:56.984Z,955.79
2023-02-12T09:33:56.981Z,955.79
2023-02-12T09:34:56.966Z,955.77
2023-02-12T09:35:57.312Z,955.84
2023-02-12T09:36:57.011Z,955.83
2023-02-12T09:37:56.995Z,955.76
2023-02-12T09:38:56.931Z,955.73
2023-02-12T09:39:56.942Z,955.75
2023-02-12T09:40:56.895Z,955.76
2023-02-12T09:41:56.966Z,955.76
2023-02-12T09:42:56.923Z,955.71
2023-02-12T09:43:56.898Z,955.71
2023-02-12T09:44:56.874Z,955.69
2023-02-12T09:45:57.375Z,955.68
2023-02-12T09:47:01.536Z,955.69
2023-02-12T09:47:56.867Z,955.72
2023-02-12T09:48:56.820Z,955.75
2023-02-12T09:49:56.792Z,955.73
2023-02-12T09:50:56.812Z,955.76
2023-02-12T09:51:56.819Z,955.75
2023-02-12T09:52:56.842Z,955.70
2023-02-12T09:53:56.790Z,955.69
2023-02-12T09:54:56.837Z,955.71
2023-02-12T09:55:57.171Z,955.70
2023-02-12T09:56:56.760Z,955.73
2023-02-12T09:57:56.761Z,955.75
2023-02-12T09:58:56.746Z,955.73
2023-02-12T09:59:56.690Z,955.78
2023-02-12T10:00:56.709Z,955.75
2023-02-12T10:01:56.702Z,955.79
2023-02-12T10:02:56.718Z,955.78
2023-02-12T10:03:56.746Z,955.76
2023-02-12T10:05:01.492Z,955.80
2023-02-12T10:05:57.953Z,955.76
2023-02-12T10:06:56.621Z,955.71
2023-02-12T10:07:56.633Z,955.70
2023-02-12T10:08:56.672Z,955.73
2023-02-12T10:09:56.675Z,955.73
2023-02-12T10:10:56.614Z,955.70
2023-02-12T10:11:56.637Z,955.70
2023-02-12T10:12:56.616Z,955.70
2023-02-12T10:13:56.573Z,955.72
2023-02-12T10:14:56.535Z,955.73
2023-02-12T10:15:56.975Z,955.74
2023-02-12T10:16:56.555Z,955.70
2023-02-12T10:17:56.565Z,955.69
2023-02-12T10:18:56.508Z,955.70
2023-02-12T10:19:56.491Z,955.67
2023-02-12T10:20:56.848Z,955.62
2023-02-12T10:21:56.485Z,955.61
2023-02-12T10:22:57.502Z,955.62
2023-02-12T10:23:56.460Z,955.62
2023-02-12T10:24:56.438Z,955.60
2023-02-12T10:25:56.905Z,955.59
2023-02-12T10:26:56.612Z,955.58
2023-02-12T10:28:04.009Z,955.59
2023-02-12T10:28:56.434Z,955.58
2023-02-12T10:29:56.489Z,955.53
2023-02-12T10:30:56.519Z,955.52
2023-02-12T10:32:56.379Z,955.50
2023-02-12T10:33:56.355Z,955.44
2023-02-12T10:34:56.404Z,955.46
2023-02-12T10:35:56.732Z,955.41
2023-02-12T10:36:56.342Z,955.38
2023-02-12T10:37:56.309Z,955.41
2023-02-12T10:38:56.307Z,955.38
2023-02-12T10:39:56.323Z,955.38
2023-02-12T10:40:56.285Z,955.41
2023-02-12T10:41:56.253Z,955.39
2023-02-12T10:42:56.268Z,955.36
2023-02-12T10:43:56.293Z,955.37
2023-02-12T10:44:56.218Z,955.37
2023-02-12T10:45:56.563Z,955.33
2023-02-12T10:46:56.209Z,955.32
2023-02-12T10:47:56.245Z,955.28
2023-02-12T10:48:56.277Z,955.30
2023-02-12T10:49:56.208Z,955.26
2023-02-12T10:50:56.160Z,955.29
2023-02-12T10:51:56.174Z,955.20
2023-02-12T10:52:56.308Z,955.21
2023-02-12T10:53:56.234Z,955.22
2023-02-12T10:54:56.145Z,955.20
2023-02-12T10:55:56.467Z,955.19
2023-02-12T10:56:56.130Z,955.13
2023-02-12T10:57:56.098Z,955.14
2023-02-12T10:58:56.134Z,955.14
2023-02-12T10:59:56.076Z,955.12
2023-02-12T11:00:56.116Z,955.08
2023-02-12T11:01:56.121Z,955.08
2023-02-12T11:02:56.084Z,955.10
2023-02-12T11:03:56.068Z,955.05
2023-02-12T11:04:56.155Z,955.07
2023-02-12T11:05:56.295Z,955.11
2023-02-12T11:06:56.039Z,955.15
2023-02-12T11:07:56.001Z,955.12
2023-02-12T11:08:55.993Z,955.07
2023-02-12T11:09:56.021Z,955.05
2023-02-12T11:10:55.953Z,955.02
2023-02-12T11:11:55.950Z,955.01
2023-02-12T11:12:55.933Z,955.04
2023-02-12T11:13:55.987Z,955.02
2023-02-12T11:14:56.016Z,954.98
2023-02-12T11:15:55.967Z,954.96
2023-02-12T11:16:55.931Z,955.00
2023-02-12T11:17:55.879Z,954.99
2023-02-12T11:18:55.891Z,954.99
2023-02-12T11:19:55.956Z,954.95
2023-02-12T11:20:55.914Z,954.93
2023-02-12T11:21:55.848Z,954.92
2023-02-12T11:22:55.900Z,954.93
2023-02-12T11:23:55.829Z,954.91
2023-02-12T11:24:55.807Z,954.93
2023-02-12T11:25:56.100Z,954.95
2023-02-12T11:26:55.837Z,954.93
2023-02-12T11:27:55.843Z,954.87
2023-02-12T11:28:56.127Z,954.82
2023-02-12T11:29:55.817Z,954.88
2023-02-12T11:30:55.901Z,954.86
2023-02-12T11:31:55.765Z,954.84
2023-02-12T11:32:55.759Z,954.89
2023-02-12T11:33:55.760Z,954.86
2023-02-12T11:34:55.763Z,954.90
2023-02-12T11:35:55.717Z,954.87
2023-02-12T11:36:55.708Z,954.85
2023-02-12T11:37:55.697Z,954.80
2023-02-12T11:38:55.721Z,954.88
2023-02-12T11:39:55.675Z,954.85
2023-02-12T11:40:56.002Z,954.88
2023-02-12T11:41:55.697Z,954.84
2023-02-12T11:42:55.643Z,954.81
2023-02-12T11:43:55.611Z,954.90
2023-02-12T11:44:55.623Z,954.87
2023-02-12T11:45:55.606Z,954.83
2023-02-12T11:46:55.698Z,954.84
2023-02-12T11:47:55.647Z,954.86
2023-02-12T11:48:55.558Z,954.87
2023-02-12T11:49:55.562Z,954.81
2023-02-12T11:50:55.575Z,954.81
2023-02-12T11:51:55.625Z,954.80
2023-02-12T11:52:55.593Z,954.82
2023-02-12T11:53:55.535Z,954.79
2023-02-12T11:54:55.535Z,954.86
2023-02-12T11:55:55.530Z,954.81
2023-02-12T11:56:55.484Z,954.81
2023-02-12T11:57:55.526Z,954.79
2023-02-12T11:58:55.462Z,954.74
2023-02-12T11:59:55.454Z,954.78
2023-02-12T12:00:55.442Z,954.76
2023-02-12T12:01:55.472Z,954.82
2023-02-12T12:02:55.449Z,954.81
2023-02-12T12:03:55.453Z,954.80
2023-02-12T12:04:55.421Z,954.74
2023-02-12T12:05:55.762Z,954.73
2023-02-12T12:06:55.377Z,954.77
2023-02-12T12:07:55.375Z,954.75
2023-02-12T12:08:55.415Z,954.81
2023-02-12T12:09:55.371Z,954.76
2023-02-12T12:10:55.339Z,954.82
2023-02-12T12:11:55.337Z,954.83
2023-02-12T12:12:55.315Z,954.81
2023-02-12T12:13:55.368Z,954.81
2023-02-12T12:14:55.324Z,954.81
2023-02-12T12:15:55.619Z,954.73
2023-02-12T12:16:55.273Z,954.76
2023-02-12T12:17:55.280Z,954.73
2023-02-12T12:18:55.273Z,954.71
2023-02-12T12:19:55.256Z,954.64
2023-02-12T12:20:55.277Z,954.70
2023-02-12T12:21:55.219Z,954.68
2023-02-12T12:22:55.205Z,954.66
2023-02-12T12:23:55.252Z,954.66
2023-02-12T12:24:55.238Z,954.64
2023-02-12T12:25:55.599Z,954.70
2023-02-12T12:26:55.260Z,954.65
2023-02-12T12:27:55.155Z,954.66
2023-02-12T12:28:55.169Z,954.66